Haworth, OK

3:38 AM CDT on July 31, 2016 (GMT -0500)
Fuller Farms | | Change Station

Elev 433 ft 33.82 °N, 94.71 °W | Updated 6 seconds ago

Overcast
Overcast
70.2 °F
Feels Like 70.2 °F
N
1.0
Wind Variable Wind from NE
Gusts 3.0 mph

Today
High -- | Low -- °F
--% Chance of Precip.
Yesterday
High -- | Low -- °F
Precip. -- in
Pressure 30.00 in
Visibility 5.0 miles
Clouds Overcast 200 ft
Dew Point 70 °F
Humidity 98%
Rainfall 0.00 in
Snow Depth Not available.
6:30 AM 8:19 PM
Waning Crescent, 8% visible
METAR K4O4 310835Z AUTO 09004KT 5SM OVC002 21/20 A3000 RMK AO2
Pressure 30.00 in
Visibility 5.0 miles
Clouds Overcast 200 ft
Dew Point 70 °F
Humidity 98%
Rainfall 0.00 in
Snow Depth Not available.
6:30 AM 8:19 PM
Waning Crescent, 8% visible
METAR K4O4 310835Z AUTO 09004KT 5SM OVC002 21/20 A3000 RMK AO2

10-Day Weather Forecast

Almanac

Astronomy

Jul. 31, 2016 Rise Set
Actual Time
Civil Twilight
Nautical Twilight
Astronomical Twilight
Moon
Length of Visible Light
Length of Day
Tomorrow will be .
, % of the Moon is Illuminated

Today's Extremes

State Highs State Lows

Community

WunderPhotos

Upload Photos

1,928,768 photos uploaded!

WunderBlog® & News

Nearby

Air Quality

  Air Quality AQ Index Pollutant
Not available.

Snow Depth

Station Depth Elevation

Earthquake Activity

City Distance Mag. Time & Date
Minimum magnitude displayed is 2.5.

Coastal Water Temperatures

Place Temperature

Stations

Nearby Weather Stations

Station Location Temp. Windchill Dew Point Humidity Wind Precip. Elev Updated Type
                   

Watches & Warnings

There are currently no watches in effect.